Time;durP1;ratioP1;P1;durP2;ratioP2;P2;SDS_P1;SDS_P2;PMS_P1;PMS_P2;Temp;Humidity;BMP_temperature;BMP_pressure;BME280_temperature;BME280_humidity;BME280_pressure;Samples;Min_cycle;Max_cycle;Signal;HPM_P1;HPM_P2
2021/04/10 00:00:23;;;;;;;3.33;1.38;;;;;;;23.47;46.94;100020.69;5072238;28;20035;-61
2021/04/10 00:02:52;;;;;;;2.75;1.30;;;;;;;23.45;46.72;100014.56;5072517;28;20321;-61
2021/04/10 00:05:21;;;;;;;2.40;1.05;;;;;;;23.44;46.78;100012.91;5087787;28;20024;-62
2021/04/10 00:07:46;;;;;;;2.67;1.17;;;;;;;23.43;46.39;100027.69;5072079;28;20447;-61
2021/04/10 00:10:12;;;;;;;2.70;1.20;;;;;;;23.41;46.71;100022.44;5072196;28;20099;-61
2021/04/10 00:12:38;;;;;;;4.40;1.23;;;;;;;23.41;46.14;100018.84;5072293;28;20025;-60
2021/04/10 00:15:06;;;;;;;3.28;1.10;;;;;;;23.40;46.35;100019.91;5072177;28;20452;-61
2021/04/10 00:17:32;;;;;;;3.10;1.50;;;;;;;23.40;45.68;100017.16;5072185;28;20024;-61
2021/04/10 00:19:57;;;;;;;5.68;1.52;;;;;;;23.39;46.26;100027.28;5072270;28;20017;-61
2021/04/10 00:22:22;;;;;;;5.32;1.88;;;;;;;23.38;46.42;100024.78;5072120;28;20353;-61
2021/04/10 00:24:48;;;;;;;2.08;1.13;;;;;;;23.35;46.21;100027.97;5071922;28;20028;-61
2021/04/10 00:27:13;;;;;;;3.25;1.45;;;;;;;23.35;46.16;100031.56;5071982;28;20127;-61
2021/04/10 00:29:38;;;;;;;3.38;1.27;;;;;;;23.33;46.12;100030.06;5072048;28;20036;-61
2021/04/10 00:32:04;;;;;;;3.38;1.48;;;;;;;23.34;46.34;100029.00;5072102;28;20159;-61
2021/04/10 00:34:29;;;;;;;3.63;1.50;;;;;;;23.34;47.24;100034.50;5072134;28;20020;-61
2021/04/10 00:36:54;;;;;;;4.30;1.00;;;;;;;23.32;48.10;100025.66;5072233;28;20020;-61
2021/04/10 00:39:19;;;;;;;1.25;0.88;;;;;;;23.33;47.89;100038.31;5075805;28;20499;-62
2021/04/10 00:41:45;;;;;;;4.78;1.40;;;;;;;23.32;47.97;100036.63;5075834;28;20017;-61
2021/04/10 00:44:10;;;;;;;4.63;1.40;;;;;;;23.33;49.12;100032.81;5075656;28;20025;-61
2021/04/10 00:46:35;;;;;;;3.20;1.30;;;;;;;23.28;48.51;100024.44;5075687;28;20023;-61
2021/04/10 00:49:01;;;;;;;4.35;1.40;;;;;;;23.27;48.75;100028.25;5075809;28;20562;-61
2021/04/10 00:51:26;;;;;;;4.55;1.50;;;;;;;23.30;48.51;100036.00;5075488;28;20103;-61
2021/04/10 00:53:51;;;;;;;2.97;1.33;;;;;;;23.29;48.93;100032.44;5075702;28;20028;-62
2021/04/10 00:56:16;;;;;;;3.72;1.50;;;;;;;23.29;48.96;100035.19;5090793;28;20040;-61
2021/04/10 00:58:42;;;;;;;4.78;1.40;;;;;;;23.28;48.78;100040.88;5075618;28;20105;-61
2021/04/10 01:01:08;;;;;;;4.05;1.48;;;;;;;23.30;48.61;100038.75;5075429;28;20025;-61
2021/04/10 01:03:33;;;;;;;2.97;1.73;;;;;;;23.23;48.85;100032.50;5075425;28;20029;-61
2021/04/10 01:05:58;;;;;;;5.03;1.30;;;;;;;23.25;48.89;100046.81;5077221;28;20028;-61
2021/04/10 01:08:24;;;;;;;2.30;1.10;;;;;;;23.26;48.66;100037.53;5075218;28;20035;-61
2021/04/10 01:10:51;;;;;;;4.00;1.33;;;;;;;23.27;48.36;100041.94;5075464;28;20027;-61
2021/04/10 01:13:37;;;;;;;2.85;1.27;;;;;;;23.24;48.93;100045.16;5073876;28;20024;-61
2021/04/10 01:16:19;;;;;;;2.75;1.23;;;;;;;23.23;48.11;100047.03;5075171;28;20029;-61
2021/04/10 01:18:57;;;;;;;3.97;1.40;;;;;;;23.22;48.19;100037.16;5075189;28;20383;-61
2021/04/10 01:21:40;;;;;;;5.00;1.70;;;;;;;23.23;47.92;100044.31;5075011;28;20028;-61
2021/04/10 01:24:17;;;;;;;4.28;1.50;;;;;;;23.23;47.37;100054.44;5074707;28;20332;-61
2021/04/10 01:27:21;;;;;;;2.60;1.40;;;;;;;23.20;48.30;100055.72;5075099;28;20031;-61
2021/04/10 01:29:56;;;;;;;2.75;1.02;;;;;;;23.20;47.57;100043.91;4993293;28;20030;-61
2021/04/10 01:32:26;;;;;;;3.90;1.20;;;;;;;23.20;47.00;100054.88;4993110;28;20030;-61
2021/04/10 01:34:57;;;;;;;3.75;1.40;;;;;;;23.19;47.80;100048.56;4993304;28;20328;-62
2021/04/10 01:37:48;;;;;;;2.20;1.10;;;;;;;23.18;47.70;100056.97;4991909;28;20030;-61
2021/04/10 01:40:14;;;;;;;3.05;1.35;;;;;;;23.17;47.71;100049.81;4992957;28;20038;-61
2021/04/10 01:42:41;;;;;;;3.13;1.40;;;;;;;23.17;47.87;100044.34;4993021;28;20038;-62
2021/04/10 01:45:07;;;;;;;3.60;1.45;;;;;;;23.16;47.56;100051.72;4992923;28;20073;-61
2021/04/10 01:47:35;;;;;;;3.58;1.20;;;;;;;23.17;47.54;100053.41;4992760;28;20046;-61
2021/04/10 01:50:05;;;;;;;3.53;1.17;;;;;;;23.14;47.03;100050.28;4992858;28;20088;-61
2021/04/10 01:52:31;;;;;;;3.22;1.20;;;;;;;23.13;47.28;100054.06;4992715;28;20065;-61
2021/04/10 01:54:58;;;;;;;3.50;1.52;;;;;;;23.14;47.37;100050.28;4992642;28;20477;-62
2021/04/10 01:57:24;;;;;;;3.58;1.40;;;;;;;23.10;47.38;100053.47;4992610;28;20517;-61
2021/04/10 01:59:50;;;;;;;3.70;1.40;;;;;;;23.11;47.47;100057.88;4992785;28;20072;-62
2021/04/10 02:02:15;;;;;;;5.45;1.30;;;;;;;23.09;47.58;100054.53;4992545;28;20026;-61
2021/04/10 02:04:44;;;;;;;3.40;1.38;;;;;;;23.12;47.94;100053.22;4992759;28;20054;-61
2021/04/10 02:07:11;;;;;;;3.17;1.35;;;;;;;23.10;47.22;100060.84;5052461;28;20506;-61
2021/04/10 02:09:39;;;;;;;3.35;1.30;;;;;;;23.09;47.35;100065.50;5074059;28;20271;-61
2021/04/10 02:12:06;;;;;;;4.35;1.45;;;;;;;23.08;47.20;100063.81;5074163;28;20071;-62
2021/04/10 02:14:33;;;;;;;3.53;1.20;;;;;;;23.09;46.85;100070.13;5073764;28;20024;-60
2021/04/10 02:16:59;;;;;;;4.45;1.15;;;;;;;23.08;46.88;100073.94;5074131;28;20033;-61
2021/04/10 02:19:24;;;;;;;3.13;1.20;;;;;;;23.06;46.55;100071.41;5073910;28;20178;-61
2021/04/10 02:21:49;;;;;;;3.85;1.58;;;;;;;23.05;46.55;100086.19;5074122;28;20025;-61
2021/04/10 02:24:15;;;;;;;2.67;1.17;;;;;;;23.06;46.91;100082.38;5073830;28;20036;-62
2021/04/10 02:26:41;;;;;;;4.63;1.48;;;;;;;23.05;46.93;100080.72;5073918;28;20095;-62
2021/04/10 02:29:06;;;;;;;3.83;1.13;;;;;;;23.05;46.95;100079.88;5073727;28;20027;-61
2021/04/10 02:32:10;;;;;;;5.05;1.50;;;;;;;23.03;46.83;100077.34;5073678;28;20016;-60
2021/04/10 02:34:46;;;;;;;3.47;1.20;;;;;;;23.04;48.15;100081.78;5031322;28;20115;-61
2021/04/10 02:37:11;;;;;;;2.50;1.08;;;;;;;23.03;47.75;100084.72;5030847;28;20045;-62
2021/04/10 02:39:39;;;;;;;2.55;1.33;;;;;;;23.04;48.68;100090.00;5031338;28;20041;-60
2021/04/10 02:42:06;;;;;;;3.58;1.42;;;;;;;22.99;48.20;100084.31;5031220;28;20125;-61
2021/04/10 02:44:39;;;;;;;3.20;1.20;;;;;;;23.02;48.66;100094.03;5014657;28;20532;-61
2021/04/10 02:47:06;;;;;;;4.82;1.02;;;;;;;23.05;49.40;100104.53;5031137;28;20041;-61
2021/04/10 02:49:37;;;;;;;4.05;1.30;;;;;;;23.03;48.82;100103.91;5031119;28;20133;-62
2021/04/10 02:52:05;;;;;;;4.80;1.73;;;;;;;23.03;48.90;100099.28;5031005;28;20033;-60
2021/04/10 02:54:38;;;;;;;3.72;1.17;;;;;;;23.01;49.09;100101.41;5030826;28;20034;-62
2021/04/10 02:57:12;;;;;;;4.57;1.85;;;;;;;23.04;49.37;100095.47;5031018;28;20049;-60
2021/04/10 02:59:38;;;;;;;;;;;;;;;23.02;49.19;100111.31;5030866;28;20025;-62
2021/04/10 03:02:04;;;;;;;3.92;1.40;;;;;;;23.02;49.37;100108.56;5030664;28;19939;-61
2021/04/10 03:04:30;;;;;;;2.70;1.63;;;;;;;23.01;48.82;100106.88;5030796;28;20029;-61
2021/04/10 03:06:56;;;;;;;3.15;1.52;;;;;;;23.01;49.21;100112.38;5030706;28;20032;-62
2021/04/10 03:09:22;;;;;;;4.60;1.60;;;;;;;23.01;48.89;100106.00;5049043;28;20041;-61
2021/04/10 03:11:48;;;;;;;2.03;1.17;;;;;;;22.98;48.81;100112.78;5053194;28;20021;-61
2021/04/10 03:14:14;;;;;;;4.68;1.73;;;;;;;23.00;48.75;100127.09;5052983;28;20383;-60
2021/04/10 03:16:42;;;;;;;4.18;1.83;;;;;;;23.00;49.25;100120.78;5052990;28;20021;-61
2021/04/10 03:19:08;;;;;;;4.55;1.13;;;;;;;22.98;48.49;100123.75;5052818;28;20064;-62
2021/04/10 03:21:34;;;;;;;3.60;1.45;;;;;;;22.98;48.46;100118.25;5052897;28;20063;-61
2021/04/10 03:24:00;;;;;;;3.30;1.20;;;;;;;22.98;48.40;100123.75;5052942;28;20021;-62
2021/04/10 03:26:26;;;;;;;3.10;1.30;;;;;;;22.98;48.84;100129.22;5052706;28;20017;-62
2021/04/10 03:28:53;;;;;;;4.03;1.63;;;;;;;22.97;47.92;100137.66;5069691;28;20024;-61
2021/04/10 03:31:19;;;;;;;3.92;1.17;;;;;;;22.96;48.54;100142.31;5072562;28;20027;-60
2021/04/10 03:33:44;;;;;;;7.03;2.28;;;;;;;22.96;47.84;100139.56;5072725;28;20024;-62
2021/04/10 03:36:11;;;;;;;4.43;1.23;;;;;;;22.93;47.69;100148.25;5072275;28;20082;-61
2021/04/10 03:38:39;;;;;;;3.05;1.27;;;;;;;22.96;48.25;100146.94;5072745;28;20063;-62
2021/04/10 03:41:06;;;;;;;2.47;1.13;;;;;;;22.93;48.07;100153.72;5072913;28;20023;-62
2021/04/10 03:43:32;;;;;;;3.65;1.20;;;;;;;22.93;48.01;100142.75;5072465;28;20360;-61
2021/04/10 03:45:57;;;;;;;5.43;1.42;;;;;;;22.93;47.93;100156.47;5071420;28;20021;-62
2021/04/10 03:48:22;;;;;;;4.63;1.95;;;;;;;22.94;47.82;100155.41;5072430;28;20070;-61
2021/04/10 03:50:48;;;;;;;3.35;1.30;;;;;;;22.92;47.96;100173.97;5072624;28;20468;-62
2021/04/10 03:53:13;;;;;;;3.42;1.30;;;;;;;22.92;47.60;100152.03;5072418;28;20028;-62
2021/04/10 03:55:38;;;;;;;4.00;1.50;;;;;;;22.89;48.23;100157.97;5070907;28;20043;-62
2021/04/10 03:58:04;;;;;;;4.32;1.60;;;;;;;22.88;47.71;100159.03;5072426;28;20372;-62
2021/04/10 04:00:30;;;;;;;2.03;0.90;;;;;;;22.91;48.11;100161.31;5072279;28;20024;-61
2021/04/10 04:02:56;;;;;;;3.17;1.40;;;;;;;24.10;45.23;100155.03;5072846;28;20056;-62
2021/04/10 04:05:22;;;;;;;3.25;1.40;;;;;;;24.54;43.85;100164.13;5071988;28;20484;-60
2021/04/10 04:07:48;;;;;;;4.03;1.40;;;;;;;24.76;43.11;100161.75;5072041;28;20051;-61
2021/04/10 04:10:13;;;;;;;1.35;0.80;;;;;;;24.86;42.74;100165.66;5072075;28;20036;-61
2021/04/10 04:12:38;;;;;;;3.78;1.17;;;;;;;25.03;43.25;100170.56;5075715;28;20024;-62
2021/04/10 04:15:05;;;;;;;1.40;0.80;;;;;;;25.11;42.68;100167.47;5076380;28;20064;-62
2021/04/10 04:17:30;;;;;;;2.28;1.10;;;;;;;25.21;42.62;100166.94;5076298;28;20082;-62
2021/04/10 04:19:55;;;;;;;3.28;1.00;;;;;;;25.27;42.24;100172.31;5075208;28;20463;-62
2021/04/10 04:22:21;;;;;;;3.17;1.35;;;;;;;25.26;42.23;100176.16;5076226;28;20079;-61
2021/04/10 04:24:46;;;;;;;4.13;1.70;;;;;;;25.26;42.79;100175.31;5076331;28;20032;-62
2021/04/10 04:27:11;;;;;;;3.47;1.42;;;;;;;25.31;42.57;100184.53;5075925;28;20415;-61
2021/04/10 04:29:36;;;;;;;3.10;1.10;;;;;;;25.41;42.26;100184.81;5076126;28;20463;-62
2021/04/10 04:32:02;;;;;;;3.22;1.15;;;;;;;25.36;42.75;100173.69;5076024;28;20028;-61
2021/04/10 04:34:27;;;;;;;1.88;0.80;;;;;;;25.44;42.62;100191.78;5076235;28;20463;-63
2021/04/10 04:36:52;;;;;;;3.38;1.20;;;;;;;25.44;43.88;100197.28;5075774;28;20024;-61
2021/04/10 04:39:18;;;;;;;3.17;1.50;;;;;;;25.48;43.34;100191.06;5075844;28;20483;-62
2021/04/10 04:41:43;;;;;;;3.88;1.30;;;;;;;25.47;43.58;100200.38;5074650;28;20020;-62
2021/04/10 04:44:08;;;;;;;3.45;1.30;;;;;;;25.49;42.86;100191.91;5075717;28;20024;-62
2021/04/10 04:46:33;;;;;;;2.28;1.10;;;;;;;25.53;43.22;100198.63;5075770;28;20345;-62
2021/04/10 04:48:59;;;;;;;3.30;1.38;;;;;;;25.57;43.63;100205.34;5075775;28;20036;-61
2021/04/10 04:51:24;;;;;;;4.28;1.55;;;;;;;25.63;43.48;100198.88;5076186;28;20107;-61
2021/04/10 04:53:49;;;;;;;3.25;1.30;;;;;;;25.62;44.36;100202.72;5075774;28;20020;-61
2021/04/10 04:56:15;;;;;;;5.10;1.30;;;;;;;25.68;44.00;100214.72;5075273;28;20144;-62
2021/04/10 04:58:40;;;;;;;3.20;0.82;;;;;;;25.68;44.50;100206.47;5075550;28;20024;-61
2021/04/10 05:01:05;;;;;;;4.57;1.42;;;;;;;25.70;44.13;100215.34;5075536;28;20024;-63
2021/04/10 05:03:31;;;;;;;3.28;1.05;;;;;;;25.71;44.41;100222.53;5075413;28;20633;-61
2021/04/10 05:05:56;;;;;;;3.30;1.40;;;;;;;25.71;44.52;100222.53;5075244;28;20374;-62
2021/04/10 05:08:21;;;;;;;4.28;1.52;;;;;;;25.72;44.39;100227.81;5075379;28;20383;-62
2021/04/10 05:10:47;;;;;;;2.25;0.90;;;;;;;25.70;44.75;100232.72;5075302;28;20028;-61
2021/04/10 05:13:12;;;;;;;2.50;1.05;;;;;;;25.78;44.31;100234.28;5075201;28;20024;-61
2021/04/10 05:15:37;;;;;;;2.47;0.70;;;;;;;25.77;43.87;100238.09;5075197;28;20028;-61
2021/04/10 05:18:03;;;;;;;1.95;1.13;;;;;;;25.74;44.38;100239.41;5075216;28;20029;-62
2021/04/10 05:20:28;;;;;;;2.95;1.42;;;;;;;25.75;43.53;100248.50;5075375;28;20033;-61
2021/04/10 05:22:55;;;;;;;3.28;1.60;;;;;;;25.73;44.26;100250.66;5074570;28;20485;-62
2021/04/10 05:25:20;;;;;;;2.80;1.42;;;;;;;25.73;43.91;100250.66;5073698;28;20026;-62
2021/04/10 05:27:50;;;;;;;2.63;1.08;;;;;;;25.76;43.73;100259.28;5075019;28;20169;-62
2021/04/10 05:30:16;;;;;;;3.70;1.38;;;;;;;25.78;43.85;100257.13;5075222;28;20025;-63
2021/04/10 05:32:42;;;;;;;3.25;1.35;;;;;;;25.77;43.62;100260.13;5074985;28;20490;-61
2021/04/10 05:35:08;;;;;;;4.38;1.15;;;;;;;25.82;43.70;100271.25;5073298;28;20024;-62
2021/04/10 05:37:33;;;;;;;2.92;1.73;;;;;;;25.79;43.09;100266.22;5074759;28;20090;-61
2021/04/10 05:39:58;;;;;;;2.83;1.48;;;;;;;25.78;44.11;100267.31;5074928;28;20456;-62
2021/04/10 05:42:24;;;;;;;5.00;1.67;;;;;;;25.85;43.42;100275.47;5073375;28;20055;-62
2021/04/10 05:44:49;;;;;;;4.00;1.42;;;;;;;25.80;43.90;100276.16;5074838;28;20023;-62
2021/04/10 05:47:14;;;;;;;3.72;1.08;;;;;;;25.85;43.11;100279.06;5073215;28;20115;-62
2021/04/10 05:49:40;;;;;;;2.75;1.23;;;;;;;25.85;43.09;100283.72;5074678;28;20024;-62
2021/04/10 05:52:05;;;;;;;5.05;1.42;;;;;;;25.89;43.03;100282.19;5074567;28;20021;-62
2021/04/10 05:54:30;;;;;;;5.07;1.23;;;;;;;25.84;43.30;100293.91;5074496;28;20032;-62
2021/04/10 05:56:56;;;;;;;3.83;1.50;;;;;;;25.87;43.20;100293.44;5074933;28;20055;-61
2021/04/10 05:59:21;;;;;;;3.80;1.65;;;;;;;25.84;43.73;100296.66;5074263;28;20483;-62
2021/04/10 06:01:46;;;;;;;3.50;1.50;;;;;;;25.89;43.40;100291.31;5074454;28;20028;-61
2021/04/10 06:04:12;;;;;;;2.95;1.27;;;;;;;25.94;43.75;100299.69;5074192;28;20024;-61
2021/04/10 06:06:37;;;;;;;2.30;1.30;;;;;;;25.99;43.24;100308.06;5073912;28;20024;-61
2021/04/10 06:09:02;;;;;;;2.97;1.42;;;;;;;26.00;43.76;100304.25;5074347;28;20153;-62
2021/04/10 06:11:28;;;;;;;2.17;1.17;;;;;;;26.00;44.00;100315.25;5072841;28;20039;-61
2021/04/10 06:13:53;;;;;;;2.90;1.55;;;;;;;25.94;45.12;100321.72;5074419;28;20024;-61
2021/04/10 06:16:18;;;;;;;3.28;1.55;;;;;;;25.99;44.55;100312.75;5072630;28;20220;-62
2021/04/10 06:18:44;;;;;;;2.08;1.25;;;;;;;25.96;44.31;100315.97;5074084;28;20384;-62
2021/04/10 06:21:09;;;;;;;2.22;0.90;;;;;;;25.96;43.80;100321.47;5073875;28;20513;-62
2021/04/10 06:23:34;;;;;;;3.95;1.33;;;;;;;25.90;44.59;100314.16;5073919;28;20020;-61
2021/04/10 06:26:00;;;;;;;3.53;1.25;;;;;;;25.93;44.16;100320.03;5072704;28;20111;-63
2021/04/10 06:28:25;;;;;;;2.35;1.15;;;;;;;25.92;43.80;100323.88;5073724;28;20029;-61
2021/04/10 06:30:50;;;;;;;3.00;1.30;;;;;;;25.86;43.99;100330.28;5074199;28;20042;-61
2021/04/10 06:33:16;;;;;;;3.70;1.40;;;;;;;25.98;44.97;100333.94;5073522;28;20082;-61
2021/04/10 06:35:41;;;;;;;4.20;1.25;;;;;;;26.03;44.81;100336.84;5072350;28;20064;-61
2021/04/10 06:38:07;;;;;;;3.42;1.50;;;;;;;25.98;44.59;100344.13;5073450;28;20369;-61
2021/04/10 06:40:34;;;;;;;3.95;1.95;;;;;;;25.98;44.57;100350.47;5073614;28;20052;-62
2021/04/10 06:43:01;;;;;;;3.58;1.30;;;;;;;26.00;44.63;100340.06;5073551;28;20020;-61
2021/04/10 06:45:26;;;;;;;4.88;1.60;;;;;;;25.96;45.29;100336.09;5073714;28;20086;-61
2021/04/10 06:47:53;;;;;;;5.07;1.73;;;;;;;25.97;45.31;100345.19;5073671;28;20107;-62
2021/04/10 06:50:19;;;;;;;2.38;1.27;;;;;;;26.03;45.58;100358.88;5073359;28;20016;-61
2021/04/10 06:52:45;;;;;;;4.43;1.58;;;;;;;26.03;44.84;100353.38;5073514;28;20483;-62
2021/04/10 06:55:18;;;;;;;3.08;1.73;;;;;;;26.03;45.33;100345.13;5072970;28;20141;-62
2021/04/10 06:57:46;;;;;;;3.10;1.17;;;;;;;26.04;44.77;100355.06;5073251;28;20043;-61
2021/04/10 07:00:12;;;;;;;3.17;1.55;;;;;;;26.03;45.23;100364.41;5073151;28;20025;-61
2021/04/10 07:02:39;;;;;;;4.40;2.05;;;;;;;26.02;44.40;100379.22;5073585;28;20123;-61
2021/04/10 07:05:05;;;;;;;4.95;1.77;;;;;;;25.95;44.46;100378.47;5072892;28;20025;-62
2021/04/10 07:07:30;;;;;;;2.35;1.20;;;;;;;25.99;43.94;100385.19;5073318;28;20031;-61
2021/04/10 07:09:57;;;;;;;3.03;1.63;;;;;;;25.97;44.04;100381.84;5073347;28;20371;-61
2021/04/10 07:12:22;;;;;;;3.38;1.48;;;;;;;25.99;44.89;100390.69;5072891;28;20382;-61
2021/04/10 07:14:48;;;;;;;5.05;1.55;;;;;;;26.00;45.09;100392.38;5071710;28;20020;-61
2021/04/10 07:17:14;;;;;;;1.88;1.20;;;;;;;26.05;44.29;100387.03;5072880;28;20414;-62
2021/04/10 07:19:40;;;;;;;4.90;1.50;;;;;;;25.99;44.79;100390.69;5072940;28;20059;-61
2021/04/10 07:22:11;;;;;;;2.80;1.33;;;;;;;26.03;44.54;100397.44;5072831;28;20063;-60
2021/04/10 07:24:48;;;;;;;3.30;1.10;;;;;;;26.02;44.34;100405.91;5072949;28;20029;-61
2021/04/10 07:27:24;;;;;;;5.50;2.05;;;;;;;26.03;44.60;100402.09;5072241;28;20060;-62
2021/04/10 07:29:51;;;;;;;3.80;1.70;;;;;;;26.03;44.82;100411.22;5072844;28;20525;-61
2021/04/10 07:32:24;;;;;;;3.53;1.60;;;;;;;26.05;45.40;100411.81;5072596;28;20020;-62
2021/04/10 07:34:50;;;;;;;3.53;1.20;;;;;;;26.06;45.29;100413.50;5072969;28;20028;-62
2021/04/10 07:37:47;;;;;;;3.30;1.35;;;;;;;26.14;44.47;100414.25;5072563;28;20066;-61
2021/04/10 07:40:26;;;;;;;4.30;1.33;;;;;;;26.12;45.64;100427.41;5072542;28;20035;-61
2021/04/10 07:42:52;;;;;;;5.75;1.67;;;;;;;26.09;44.94;100418.53;5072731;28;20020;-62
2021/04/10 07:45:20;;;;;;;3.83;1.67;;;;;;;26.09;45.31;100424.06;5072520;28;20028;-62
2021/04/10 07:47:45;;;;;;;3.88;1.50;;;;;;;26.12;45.19;100430.16;5072348;28;20056;-62
2021/04/10 07:50:16;;;;;;;3.30;1.67;;;;;;;26.02;45.52;100430.72;5072394;28;20059;-63
2021/04/10 07:52:42;;;;;;;4.90;1.40;;;;;;;26.09;45.06;100436.97;5072618;28;20066;-62
2021/04/10 07:55:08;;;;;;;4.18;1.70;;;;;;;26.10;44.71;100438.66;5071859;28;20048;-61
2021/04/10 07:57:34;;;;;;;5.95;2.42;;;;;;;26.06;44.83;100435.53;5072732;28;20059;-62
2021/04/10 08:00:00;;;;;;;3.05;1.40;;;;;;;25.99;44.55;100443.03;5072129;28;20422;-62
2021/04/10 08:02:34;;;;;;;2.88;1.20;;;;;;;26.01;45.62;100454.66;5072351;28;20051;-61
2021/04/10 08:05:06;;;;;;;5.13;1.50;;;;;;;26.05;44.90;100455.91;5072460;28;20371;-62
2021/04/10 08:07:33;;;;;;;3.60;1.35;;;;;;;26.11;44.80;100467.88;5072580;28;20064;-61
2021/04/10 08:10:03;;;;;;;3.15;1.05;;;;;;;26.19;45.58;100463.97;5072455;28;20024;-62
2021/04/10 08:12:31;;;;;;;3.28;1.33;;;;;;;26.14;45.72;100475.69;5072234;28;20036;-62
2021/04/10 08:14:56;;;;;;;3.47;1.52;;;;;;;26.17;45.73;100468.88;5072440;28;20020;-61
2021/04/10 08:17:42;;;;;;;4.65;1.48;;;;;;;26.20;45.09;100469.25;5072416;28;20016;-62
2021/04/10 08:20:22;;;;;;;4.57;1.50;;;;;;;26.16;45.56;100472.69;5072241;28;20424;-61
2021/04/10 08:22:47;;;;;;;2.33;1.13;;;;;;;26.18;45.05;100487.06;5072283;28;20025;-62
2021/04/10 08:25:27;;;;;;;2.67;1.70;;;;;;;26.15;45.64;100490.31;5071876;28;20376;-62
2021/04/10 08:27:52;;;;;;;4.63;1.58;;;;;;;26.13;45.95;100486.94;5072332;28;20019;-61
2021/04/10 08:30:18;;;;;;;4.05;1.63;;;;;;;26.15;46.12;100493.06;5071994;28;20024;-63
2021/04/10 08:32:43;;;;;;;3.92;1.60;;;;;;;26.21;45.70;100500.41;5072168;28;20033;-61
2021/04/10 08:35:09;;;;;;;4.75;1.67;;;;;;;26.12;45.54;100496.28;5071896;28;20106;-62
2021/04/10 08:37:34;;;;;;;3.50;1.60;;;;;;;26.16;45.04;100508.50;5072142;28;20025;-62
2021/04/10 08:40:00;;;;;;;2.22;1.10;;;;;;;26.09;45.06;100512.19;5072072;28;20020;-62
2021/04/10 08:42:26;;;;;;;3.60;1.73;;;;;;;26.21;45.40;100515.03;5071945;28;20367;-61
2021/04/10 08:44:52;;;;;;;4.15;1.25;;;;;;;26.18;44.49;100526.50;5072718;28;20032;-61
2021/04/10 08:47:18;;;;;;;2.10;1.10;;;;;;;26.17;45.30;100530.31;5071810;28;20030;-62
2021/04/10 08:49:47;;;;;;;3.83;1.42;;;;;;;26.17;45.18;100540.50;5072115;28;20047;-60
2021/04/10 08:52:19;;;;;;;2.80;1.30;;;;;;;26.11;44.80;100546.94;5071857;28;20024;-62
2021/04/10 08:54:45;;;;;;;4.72;1.42;;;;;;;26.13;44.51;100539.28;5071643;28;20762;-62
2021/04/10 08:57:14;;;;;;;3.50;1.48;;;;;;;26.22;43.87;100559.97;5071775;28;20047;-63
2021/04/10 08:59:47;;;;;;;3.88;1.30;;;;;;;26.11;44.73;100553.28;5074886;28;20070;-61
2021/04/10 09:02:20;;;;;;;3.50;1.45;;;;;;;26.15;44.96;100560.00;5075475;28;20024;-62
2021/04/10 09:04:59;;;;;;;3.60;1.10;;;;;;;26.17;44.26;100562.53;5075566;28;20036;-61
2021/04/10 09:07:43;;;;;;;3.83;1.50;;;;;;;26.13;44.93;100553.06;5075324;28;20025;-61
2021/04/10 09:10:08;;;;;;;5.60;1.42;;;;;;;26.15;43.85;100570.19;5075323;28;20412;-62
2021/04/10 09:12:33;;;;;;;3.15;1.50;;;;;;;26.04;44.33;100558.88;5075346;28;20102;-61
2021/04/10 09:15:07;;;;;;;3.30;1.20;;;;;;;26.14;44.52;100565.75;5075333;28;20284;-62
2021/04/10 09:17:58;;;;;;;4.70;1.60;;;;;;;26.13;44.57;100583.34;5075234;28;20134;-62
2021/04/10 09:23:18;;;;;;;3.03;1.15;;;;;;;26.13;44.33;100589.72;5074999;28;20430;-62
2021/04/10 09:25:46;;;;;;;3.08;1.65;;;;;;;26.14;44.46;100601.56;5074905;28;20461;-62
2021/04/10 09:28:12;;;;;;;2.13;1.00;;;;;;;26.20;44.44;100592.38;5074822;28;20024;-61
2021/04/10 09:30:40;;;;;;;4.60;1.80;;;;;;;26.19;43.74;100599.81;5075002;28;20024;-63
2021/04/10 09:33:30;;;;;;;4.03;1.33;;;;;;;26.16;44.53;100604.94;5074997;28;20024;-61
2021/04/10 09:36:00;;;;;;;2.35;1.30;;;;;;;26.18;44.69;100608.28;5074950;28;20070;-62
2021/04/10 09:38:37;;;;;;;4.65;1.67;;;;;;;26.20;44.54;100617.19;5074541;28;20081;-62
2021/04/10 09:41:02;;;;;;;3.00;1.35;;;;;;;26.18;44.89;100609.13;5074843;28;20104;-61
2021/04/10 09:43:29;;;;;;;2.85;1.30;;;;;;;26.21;45.11;100624.41;5074656;28;20029;-62
2021/04/10 09:45:55;;;;;;;4.30;1.70;;;;;;;26.21;45.02;100618.88;5074883;28;20016;-62
2021/04/10 09:48:21;;;;;;;3.30;1.33;;;;;;;26.19;45.96;100621.00;5074560;28;20033;-62
2021/04/10 09:50:50;;;;;;;4.20;1.95;;;;;;;26.20;45.18;100618.00;5074746;28;20607;-62
2021/04/10 09:53:20;;;;;;;3.70;1.40;;;;;;;26.24;45.09;100621.19;5074466;28;20047;-61
2021/04/10 09:55:55;;;;;;;6.05;1.45;;;;;;;26.16;44.44;100627.81;5074364;28;20078;-62
2021/04/10 09:58:21;;;;;;;2.72;1.52;;;;;;;26.23;44.45;100627.75;5074404;28;20032;-61
2021/04/10 10:00:49;;;;;;;3.33;1.60;;;;;;;26.16;45.76;100638.84;5074741;28;20035;-61
2021/04/10 10:03:17;;;;;;;4.30;1.65;;;;;;;26.20;45.18;100641.97;5074325;28;20027;-62
2021/04/10 10:05:47;;;;;;;6.28;1.67;;;;;;;26.24;45.29;100645.97;5074378;28;20128;-62
2021/04/10 10:08:17;;;;;;;3.88;1.83;;;;;;;26.30;45.27;100651.41;5074179;28;20020;-62
2021/04/10 10:10:45;;;;;;;5.13;1.60;;;;;;;26.24;45.56;100657.00;5074126;28;20024;-61
2021/04/10 10:13:15;;;;;;;4.05;1.52;;;;;;;26.22;46.20;100664.66;5074137;28;20028;-61
2021/04/10 10:15:40;;;;;;;4.03;1.63;;;;;;;26.26;45.88;100676.91;5073857;28;20029;-61
2021/04/10 10:18:19;;;;;;;3.42;1.50;;;;;;;26.23;45.33;100677.34;5073591;28;20083;-61
2021/04/10 10:21:11;;;;;;;3.85;1.40;;;;;;;26.27;45.50;100673.06;5074104;28;20036;-62
2021/04/10 10:23:58;;;;;;;4.25;1.60;;;;;;;26.19;45.51;100682.47;5073998;28;20024;-62
2021/04/10 10:26:35;;;;;;;2.65;1.38;;;;;;;26.19;45.12;100687.13;5073860;28;20023;-61
2021/04/10 10:29:15;;;;;;;4.28;2.00;;;;;;;26.18;45.31;100685.44;5073814;28;20489;-63
2021/04/10 10:31:44;;;;;;;2.70;1.50;;;;;;;26.20;45.28;100683.28;5073749;28;20035;-62
2021/04/10 10:34:15;;;;;;;2.88;1.55;;;;;;;26.21;45.00;100690.53;5073705;28;20017;-62
2021/04/10 10:36:42;;;;;;;4.45;1.30;;;;;;;26.23;44.55;100693.91;5073714;28;20399;-62
2021/04/10 10:39:22;;;;;;;4.18;1.63;;;;;;;26.25;44.48;100702.78;5073665;28;20111;-61
2021/04/10 10:41:47;;;;;;;3.78;2.45;;;;;;;26.26;44.82;100693.44;5073703;28;20742;-62
2021/04/10 10:44:12;;;;;;;3.85;1.75;;;;;;;26.21;44.19;100687.78;5073453;28;20111;-61
2021/04/10 10:46:38;;;;;;;4.13;1.33;;;;;;;26.23;44.82;100696.66;5073379;28;20095;-61
2021/04/10 10:49:09;;;;;;;3.17;1.33;;;;;;;26.27;44.52;100706.13;5073587;28;20033;-62
2021/04/10 10:51:39;;;;;;;4.43;1.92;;;;;;;26.23;44.56;100710.44;5073783;28;20371;-60
2021/04/10 10:54:04;;;;;;;3.95;1.55;;;;;;;26.22;44.84;100711.50;5073418;28;20060;-62
2021/04/10 10:56:31;;;;;;;3.30;1.52;;;;;;;26.22;44.86;100717.00;5073078;28;20091;-62
2021/04/10 10:58:59;;;;;;;3.22;1.73;;;;;;;26.25;44.27;100713.78;5073451;28;20375;-61
2021/04/10 11:01:42;;;;;;;5.68;1.85;;;;;;;26.25;44.42;100731.16;5073189;28;20054;-62
2021/04/10 11:04:11;;;;;;;5.30;2.13;;;;;;;26.20;44.56;100738.41;5073233;28;20029;-61
2021/04/10 11:06:39;;;;;;;4.57;1.70;;;;;;;26.21;44.04;100740.97;5073154;28;20017;-62
2021/04/10 11:09:08;;;;;;;3.22;1.45;;;;;;;26.26;43.83;100743.03;5072143;28;20411;-61
2021/04/10 11:11:38;;;;;;;3.30;1.17;;;;;;;26.24;44.39;100759.78;5073144;28;20467;-61
2021/04/10 11:14:05;;;;;;;3.22;1.40;;;;;;;26.23;44.73;100746.25;5073107;28;20033;-61
2021/04/10 11:16:30;;;;;;;2.95;1.60;;;;;;;26.21;44.93;100759.41;5072651;28;20031;-61
2021/04/10 11:18:58;;;;;;;4.50;1.83;;;;;;;26.15;43.93;100757.53;5073054;28;20024;-62
2021/04/10 11:21:32;;;;;;;6.53;1.38;;;;;;;26.24;43.93;100759.78;5072330;28;20469;-62
2021/04/10 11:23:59;;;;;;;3.78;1.50;;;;;;;26.23;43.72;100777.41;5073004;28;20031;-62
2021/04/10 11:26:44;;;;;;;5.72;2.00;;;;;;;26.23;43.87;100768.28;5072829;28;20107;-62
2021/04/10 11:29:18;;;;;;;2.42;1.30;;;;;;;26.21;44.85;100786.97;5072736;28;20585;-60
2021/04/10 11:32:02;;;;;;;3.63;1.38;;;;;;;26.29;43.57;100781.16;5072758;28;20037;-63